createdAt,value
2022-11-19T01:20:58.702Z,99305.06
2022-11-19T01:24:05.255Z,99303.52
2022-11-19T01:27:11.122Z,99291.52
2022-11-19T01:30:19.570Z,99286.36
2022-11-19T01:33:25.089Z,99277.13
2022-11-19T01:36:35.843Z,99269.03
2022-11-19T01:39:42.890Z,99277.76
2022-11-19T01:42:58.387Z,99266.52
2022-11-19T01:46:05.252Z,99297.32
2022-11-19T01:49:22.618Z,99307.03
2022-11-19T01:52:28.959Z,99294.67
2022-11-19T01:55:34.619Z,99281.61
2022-11-19T01:58:40.682Z,99273.05
2022-11-19T02:01:46.969Z,99240.81
2022-11-19T02:04:53.276Z,99230.52
2022-11-19T02:08:05.643Z,99234.03
2022-11-19T02:11:59.435Z,99228.84
2022-11-19T02:15:36.243Z,99223.48
2022-11-19T02:18:53.102Z,99213.46
2022-11-19T02:22:17.378Z,99215.78
2022-11-19T02:25:38.834Z,99200.86
2022-11-19T02:29:29.523Z,99203.44
2022-11-19T02:32:43.938Z,99188.85
2022-11-19T02:36:04.571Z,99182.38
2022-11-19T02:39:21.243Z,99164.14
2022-11-19T02:42:51.245Z,99147.68
2022-11-19T02:46:13.893Z,99146.11
2022-11-19T02:49:19.547Z,99144.94
2022-11-19T02:52:24.838Z,99146.65
2022-11-19T02:55:32.203Z,99143.71
2022-11-19T02:58:55.933Z,99136.16
2022-11-19T03:02:19.946Z,99149.47
2022-11-19T03:05:29.054Z,99135.44
2022-11-19T03:08:34.342Z,99133.75
2022-11-19T03:11:42.441Z,99131.75
2022-11-19T03:15:21.703Z,99125.61
2022-11-19T03:18:48.635Z,99131.58
2022-11-19T03:22:19.637Z,99125.52
2022-11-19T03:25:35.827Z,99125.08
2022-11-19T03:28:44.251Z,99120.84
2022-11-19T03:31:48.717Z,99118.16
2022-11-19T03:34:55.000Z,99102.84
2022-11-19T03:38:01.844Z,99121.97
2022-11-19T03:41:08.970Z,99114.92
2022-11-19T03:44:22.356Z,99103.22
2022-11-19T03:47:33.393Z,99092.88
2022-11-19T03:50:48.566Z,99064.86
2022-11-19T03:53:54.867Z,99064.16
2022-11-19T03:56:54.144Z,99039.33
2022-11-19T04:00:02.081Z,99038.77
2022-11-19T04:03:08.616Z,99056.39
2022-11-19T04:06:14.574Z,99041.20
2022-11-19T04:09:21.243Z,99010.17
2022-11-19T04:12:34.617Z,99018.70
2022-11-19T04:15:40.432Z,99026.39
2022-11-19T04:18:46.332Z,99010.43
2022-11-19T04:21:51.708Z,99017.37
2022-11-19T04:24:56.445Z,98964.55
2022-11-19T04:27:55.363Z,98954.41
2022-11-19T04:31:01.920Z,98955.35
2022-11-19T04:34:06.968Z,98943.69
2022-11-19T04:37:12.883Z,98934.28
2022-11-19T04:40:18.698Z,98958.34
2022-11-19T04:43:24.318Z,98944.05
2022-11-19T04:46:30.469Z,98946.93
2022-11-19T04:49:36.784Z,98933.23
2022-11-19T04:52:42.471Z,98930.03
2022-11-19T04:55:48.093Z,98945.59
2022-11-19T04:58:47.168Z,98934.06
2022-11-19T05:01:52.761Z,98933.41
2022-11-19T05:04:58.826Z,98928.52
2022-11-19T05:08:04.720Z,98934.38
2022-11-19T05:11:11.268Z,98929.66
2022-11-19T05:14:15.950Z,98922.45
2022-11-19T05:17:22.125Z,98918.39
2022-11-19T05:20:28.890Z,98911.27
2022-11-19T05:23:35.211Z,98911.52
2022-11-19T05:26:41.514Z,98907.14
2022-11-19T05:29:47.938Z,98923.20
2022-11-19T05:32:54.419Z,98912.80
2022-11-19T05:36:01.024Z,98913.40
2022-11-19T05:39:06.863Z,98909.95
2022-11-19T05:42:11.847Z,98893.27
2022-11-19T05:45:17.621Z,98886.92
2022-11-19T05:48:22.402Z,98866.08
2022-11-19T05:51:30.840Z,98840.56
2022-11-19T05:54:37.061Z,98820.39
2022-11-19T05:57:43.908Z,98801.28
2022-11-19T06:00:50.221Z,98811.76
2022-11-19T06:03:56.949Z,98796.66
2022-11-19T06:07:03.859Z,98790.88
2022-11-19T06:10:09.109Z,98796.59
2022-11-19T06:13:15.141Z,98818.28
2022-11-19T06:16:21.181Z,98807.77
2022-11-19T06:19:27.988Z,98775.25
2022-11-19T06:22:33.465Z,98785.95
2022-11-19T06:25:40.035Z,98796.41
2022-11-19T06:28:45.523Z,98798.38
2022-11-19T06:31:51.262Z,98787.00
2022-11-19T06:34:57.643Z,98803.55
2022-11-19T06:38:03.446Z,98814.28
2022-11-19T06:41:09.934Z,98809.98
2022-11-19T06:44:15.269Z,98796.23
2022-11-19T06:47:21.367Z,98782.70
2022-11-19T06:50:28.638Z,98797.34
2022-11-19T06:53:34.142Z,98818.53
2022-11-19T06:56:39.904Z,98830.40
2022-11-19T06:59:45.668Z,98793.66
2022-11-19T07:02:51.704Z,98791.53
2022-11-19T07:05:58.821Z,98821.92
2022-11-19T07:09:04.728Z,98820.17
2022-11-19T07:12:11.645Z,98812.28
2022-11-19T07:15:17.387Z,98809.75
2022-11-19T07:18:23.191Z,98790.58
2022-11-19T07:21:29.750Z,98801.52
2022-11-19T12:08:02.071Z,99168.47
2022-11-19T12:11:21.458Z,99182.73
2022-11-19T12:14:26.892Z,99200.72
2022-11-19T12:18:07.662Z,99206.10
2022-11-19T12:21:17.672Z,99215.44
2022-11-19T12:25:11.269Z,99239.56
2022-11-19T12:41:15.828Z,99295.24
2022-11-19T12:44:26.704Z,99293.03
2022-11-19T12:47:45.218Z,99304.39
2022-11-19T12:51:23.512Z,99307.13
2022-11-19T12:54:55.242Z,99311.36
2022-11-19T12:58:28.118Z,99342.36
2022-11-19T13:01:40.736Z,99355.53
2022-11-19T13:04:56.455Z,99370.03
2022-11-19T13:08:09.320Z,99388.66
2022-11-19T13:11:25.255Z,99393.61
2022-11-19T13:15:08.593Z,99409.95
2022-11-19T13:18:15.819Z,99412.34
2022-11-19T13:21:29.319Z,99438.19
2022-11-19T13:25:02.810Z,99444.70
2022-11-19T13:28:10.291Z,99459.13
2022-11-19T13:31:20.770Z,99470.33
2022-11-19T13:34:36.827Z,99490.07
2022-11-19T13:38:13.137Z,99499.42
2022-11-19T13:41:38.156Z,99500.63
2022-11-19T13:44:47.858Z,99518.58
2022-11-19T13:48:13.956Z,99524.80
2022-11-19T13:51:20.213Z,99535.15
2022-11-19T14:15:31.660Z,99625.31
2022-11-19T14:19:18.734Z,99629.00
2022-11-19T14:23:06.889Z,99638.53
2022-11-19T14:26:28.100Z,99644.83
2022-11-19T14:29:41.843Z,99653.27
2022-11-19T14:33:00.765Z,99672.83
2022-11-19T14:36:06.619Z,99671.28
2022-11-19T14:39:14.662Z,99688.31
2022-11-19T14:42:34.833Z,99703.27
2022-11-19T14:45:40.673Z,99711.28
2022-11-19T14:48:50.109Z,99720.47
2022-11-19T14:51:57.151Z,99736.75
2022-11-19T14:55:10.049Z,99743.25
2022-11-19T14:58:18.349Z,99755.13
2022-11-19T15:01:26.666Z,99760.59
2022-11-19T15:04:32.040Z,99764.17
2022-11-19T15:07:57.031Z,99770.78
2022-11-19T15:11:21.064Z,99780.31
2022-11-19T15:14:50.641Z,99794.11
2022-11-19T15:18:00.626Z,99802.08
2022-11-19T15:21:17.613Z,99823.19
2022-11-19T15:24:46.724Z,99813.84
2022-11-19T15:28:16.129Z,99828.09
2022-11-19T15:31:46.589Z,99836.97
2022-11-19T15:35:12.191Z,99846.92
2022-11-19T15:38:40.793Z,99854.31
2022-11-19T15:41:51.151Z,99850.48
2022-11-19T15:45:12.804Z,99858.28
2022-11-19T15:48:31.534Z,99857.58
2022-11-19T15:51:38.862Z,99866.63
2022-11-19T15:54:46.665Z,99870.98
2022-11-19T15:57:57.765Z,99879.39
2022-11-19T16:00:58.291Z,99877.50
2022-11-19T16:03:58.810Z,99886.69
2022-11-19T16:07:05.774Z,99899.30
2022-11-19T16:10:12.618Z,99925.95
2022-11-19T16:13:44.130Z,99936.03
2022-11-19T16:17:06.363Z,99934.68
2022-11-19T19:29:22.201Z,100390.34
2022-11-19T19:32:29.400Z,100389.03
2022-11-19T19:35:35.084Z,100391.48
2022-11-19T19:38:41.604Z,100399.51
2022-11-19T19:41:48.122Z,100409.95
2022-11-19T19:44:47.533Z,100414.91
2022-11-19T19:47:40.155Z,100417.88
2022-11-19T19:50:46.164Z,100421.98
2022-11-19T19:53:51.784Z,100415.34
2022-11-19T19:56:56.911Z,100406.42
2022-11-19T20:00:06.015Z,100415.38
2022-11-19T20:03:11.684Z,100422.27
2022-11-19T20:06:19.234Z,100431.47
2022-11-19T20:09:27.042Z,100436.77
2022-11-19T20:12:35.599Z,100446.27
2022-11-19T20:15:41.787Z,100452.12
2022-11-19T20:18:49.141Z,100458.00
2022-11-19T20:21:57.091Z,100451.53
2022-11-19T20:25:03.887Z,100457.23
2022-11-19T20:28:09.088Z,100448.72
2022-11-19T20:31:28.230Z,100449.82
2022-11-19T20:34:35.095Z,100467.17
2022-11-19T20:37:41.463Z,100490.42
2022-11-19T20:40:46.532Z,100492.77
2022-11-19T20:44:10.083Z,100491.27
2022-11-19T20:47:18.563Z,100485.66
2022-11-19T20:50:24.637Z,100473.55
2022-11-19T20:53:30.909Z,100467.52
2022-11-19T20:56:37.196Z,100469.29
2022-11-19T20:59:45.159Z,100470.28
2022-11-19T21:02:51.073Z,100484.73
2022-11-19T21:05:56.590Z,100479.33
2022-11-19T21:09:03.513Z,100476.83
2022-11-19T21:12:08.461Z,100474.52
2022-11-19T21:15:16.315Z,100472.16
2022-11-19T21:18:24.283Z,100476.87
2022-11-19T21:21:31.461Z,100478.65
2022-11-19T21:24:37.491Z,100486.62
2022-11-19T21:27:43.416Z,100491.50
2022-11-19T21:30:48.653Z,100489.31
2022-11-19T21:33:54.917Z,100492.30
2022-11-19T21:37:00.857Z,100495.50
2022-11-19T21:40:06.898Z,100501.13
2022-11-19T21:43:12.421Z,100499.91
2022-11-19T21:46:23.077Z,100500.81
2022-11-19T21:49:27.284Z,100513.56
2022-11-19T21:52:32.593Z,100514.09
2022-11-19T21:55:38.400Z,100514.39
2022-11-19T21:58:43.827Z,100516.25
2022-11-19T22:01:54.524Z,100521.58
2022-11-19T22:04:57.882Z,100535.23
2022-11-19T22:08:03.061Z,100541.76
2022-11-19T22:11:09.988Z,100548.16
2022-11-19T22:14:18.603Z,100538.50
2022-11-19T22:17:25.822Z,100524.05
2022-11-19T22:20:31.709Z,100513.92
2022-11-19T22:23:38.313Z,100541.07
2022-11-19T22:26:44.340Z,100552.41
2022-11-19T22:29:50.999Z,100534.30
2022-11-19T22:32:56.529Z,100529.63
2022-11-19T22:36:06.449Z,100541.61
2022-11-19T22:39:02.715Z,100547.34
2022-11-19T22:42:02.390Z,100544.64
2022-11-19T22:45:07.735Z,100542.16
2022-11-19T22:48:13.371Z,100546.34
2022-11-19T22:51:25.360Z,100562.31
2022-11-19T22:54:30.201Z,100566.73
2022-11-19T22:57:36.582Z,100567.23
2022-11-19T23:00:59.399Z,100591.81
2022-11-19T23:04:06.087Z,100599.37
2022-11-19T23:07:12.866Z,100589.97
2022-11-19T23:10:19.050Z,100586.73
2022-11-19T23:13:41.225Z,100606.28
2022-11-19T23:16:46.058Z,100604.27
2022-11-19T23:19:52.166Z,100625.94
2022-11-19T23:22:58.984Z,100621.30
2022-11-19T23:26:14.581Z,100625.91
2022-11-19T23:29:20.271Z,100639.63
2022-11-19T23:32:25.707Z,100654.38
2022-11-19T23:35:31.525Z,100650.27
2022-11-19T23:38:37.367Z,100689.66
2022-11-19T23:41:43.501Z,100679.31
2022-11-19T23:44:48.855Z,100678.05
2022-11-19T23:47:55.454Z,100689.88
2022-11-19T23:51:02.613Z,100694.24
2022-11-19T23:54:08.246Z,100709.44
2022-11-19T23:57:14.438Z,100717.19
